Time;durP1;ratioP1;P1;durP2;ratioP2;P2;SDS_P1;SDS_P2;PMS_P1;PMS_P2;Temp;Humidity;BMP_temperature;BMP_pressure;BME280_temperature;BME280_humidity;BME280_pressure;Samples;Min_cycle;Max_cycle;Signal;HPM_P1;HPM_P2
2023/06/16 05:50:50;;;;;;;5.65;4.30;;;;;;;;;;10579182;27;20426;-86
2023/06/16 05:56:02;;;;;;;5.70;3.38;;;;;;;;;;10498655;28;20025;-86
2023/06/16 06:01:07;;;;;;;7.72;4.07;;;;;;;;;;10488340;28;20398;-86
2023/06/16 06:06:22;;;;;;;13.30;4.50;;;;;;;;;;10494269;28;20119;-86
2023/06/16 06:11:52;;;;;;;9.40;4.30;;;;;;;;;;10502117;28;20479;-86
2023/06/16 06:16:54;;;;;;;9.35;4.57;;;;;;;;;;10494595;28;20092;-86
2023/06/16 06:21:57;;;;;;;4.60;3.95;;;;;;;;;;10494680;28;20483;-86
2023/06/16 06:26:58;;;;;;;5.93;4.38;;;;;;;;;;10492282;28;20075;-86
2023/06/16 06:31:59;;;;;;;6.07;3.63;;;;;;;;;;10495006;28;20032;-86
2023/06/16 06:37:00;;;;;;;4.18;3.55;;;;;;;;;;10493149;28;20040;-86
2023/06/16 06:42:02;;;;;;;8.20;4.30;;;;;;;;;;10492382;28;20029;-86
2023/06/16 06:47:04;;;;;;;5.00;3.97;;;;;;;;;;10492359;28;20045;-87
2023/06/16 06:52:25;;;;;;;4.43;3.45;;;;;;;;;;10489870;28;20044;-86
2023/06/16 06:57:26;;;;;;;5.95;3.80;;;;;;;;;;10490521;28;20028;-85
2023/06/16 07:02:27;;;;;;;9.20;3.78;;;;;;;;;;10470589;28;20376;-85
2023/06/16 07:25:05;;;;;;;4.00;3.60;;;;;;;;;;10483836;28;20084;-90
2023/06/16 07:52:48;;;;;;;10.07;7.93;;;;;;;;;;10428488;28;20110;-90
2023/06/16 07:57:50;;;;;;;7.97;5.97;;;;;;;;;;10463822;28;20060;-90
2023/06/16 08:02:54;;;;;;;9.52;8.52;;;;;;;;;;10470370;28;20033;-88
2023/06/16 08:13:43;;;;;;;6.80;5.13;;;;;;;;;;10465188;28;20036;-87
2023/06/16 08:18:47;;;;;;;4.50;4.10;;;;;;;;;;10469617;28;20040;-86
2023/06/16 08:23:50;;;;;;;4.25;3.70;;;;;;;;;;10473972;28;20025;-88
2023/06/16 08:55:43;;;;;;;4.88;4.18;;;;;;;;;;10546647;28;20024;-88
2023/06/16 09:06:58;;;;;;;5.80;4.22;;;;;;;;;;10545477;28;20032;-89
2023/06/16 09:18:21;;;;;;;6.78;4.80;;;;;;;;;;10345907;28;20039;-89
2023/06/16 09:23:36;;;;;;;5.75;4.80;;;;;;;;;;10502325;28;20036;-87
2023/06/16 09:28:47;;;;;;;6.05;4.40;;;;;;;;;;10538951;28;20409;-89
2023/06/16 09:33:54;;;;;;;7.07;6.10;;;;;;;;;;10485194;28;20100;-87
2023/06/16 09:38:58;;;;;;;5.32;4.82;;;;;;;;;;10531356;28;20122;-88
2023/06/16 09:44:09;;;;;;;4.60;4.00;;;;;;;;;;10526768;28;20040;-88
2023/06/16 09:55:02;;;;;;;6.68;4.47;;;;;;;;;;10524067;28;20032;-88
2023/06/16 10:00:06;;;;;;;7.82;4.40;;;;;;;;;;10528478;28;20036;-85
2023/06/16 10:05:14;;;;;;;5.20;3.88;;;;;;;;;;10525582;28;20482;-90
2023/06/16 10:10:23;;;;;;;5.10;4.43;;;;;;;;;;10531901;28;20048;-88
2023/06/16 10:15:25;;;;;;;4.53;3.80;;;;;;;;;;10523955;28;20106;-86
2023/06/16 10:20:27;;;;;;;6.68;4.80;;;;;;;;;;10530329;28;20063;-87
2023/06/16 10:25:29;;;;;;;4.50;3.90;;;;;;;;;;10526791;28;20055;-87
2023/06/16 10:30:31;;;;;;;6.65;4.57;;;;;;;;;;10536958;28;20013;-86
2023/06/16 10:35:38;;;;;;;6.00;4.47;;;;;;;;;;10558573;28;20166;-87
2023/06/16 10:40:44;;;;;;;7.30;4.18;;;;;;;;;;10533212;28;20060;-87
2023/06/16 10:45:45;;;;;;;5.38;4.18;;;;;;;;;;10537145;28;20024;-86
2023/06/16 10:50:58;;;;;;;5.55;4.32;;;;;;;;;;10535599;28;20573;-84
2023/06/16 10:56:06;;;;;;;5.75;4.13;;;;;;;;;;10534526;28;20067;-86
2023/06/16 11:01:24;;;;;;;6.28;3.80;;;;;;;;;;10532004;28;20089;-86
2023/06/16 11:06:48;;;;;;;5.05;4.30;;;;;;;;;;10531995;28;20498;-88
2023/06/16 11:11:50;;;;;;;8.93;7.78;;;;;;;;;;10547280;28;20053;-87
2023/06/16 11:16:51;;;;;;;6.10;4.00;;;;;;;;;;10529686;28;20134;-86
2023/06/16 11:21:52;;;;;;;5.45;4.15;;;;;;;;;;10547951;28;20024;-87
2023/06/16 11:26:53;;;;;;;5.28;3.83;;;;;;;;;;10531490;28;20074;-86
2023/06/16 11:31:56;;;;;;;9.57;8.68;;;;;;;;;;10528453;28;20051;-87
2023/06/16 11:36:57;;;;;;;4.90;4.40;;;;;;;;;;10528968;28;20446;-85
2023/06/16 11:42:00;;;;;;;4.20;3.70;;;;;;;;;;10539144;28;20067;-87
2023/06/16 11:47:01;;;;;;;5.60;4.18;;;;;;;;;;10545054;28;20036;-86
2023/06/16 11:52:02;;;;;;;5.05;3.80;;;;;;;;;;10547340;28;20079;-87
2023/06/16 11:57:03;;;;;;;11.57;10.30;;;;;;;;;;10547733;28;20063;-85
2023/06/16 12:02:10;;;;;;;7.25;5.00;;;;;;;;;;10562278;22;20073;-84
2023/06/16 12:07:11;;;;;;;5.10;4.13;;;;;;;;;;10540934;28;20417;-82
2023/06/16 12:12:13;;;;;;;6.22;4.65;;;;;;;;;;10549393;28;20174;-83
2023/06/16 12:17:14;;;;;;;5.60;4.20;;;;;;;;;;10571539;28;20193;-83
2023/06/16 12:22:16;;;;;;;4.13;3.60;;;;;;;;;;10552708;28;20078;-82
2023/06/16 12:27:26;;;;;;;5.82;5.18;;;;;;;;;;10547694;28;20104;-84
2023/06/16 12:32:31;;;;;;;4.25;3.85;;;;;;;;;;10567703;28;20035;-84
2023/06/16 12:37:32;;;;;;;5.32;4.03;;;;;;;;;;10547747;28;20036;-84
2023/06/16 12:42:35;;;;;;;4.88;4.22;;;;;;;;;;10566371;28;20040;-84
2023/06/16 12:47:36;;;;;;;6.43;3.90;;;;;;;;;;10564920;28;20089;-83
2023/06/16 12:52:37;;;;;;;7.53;3.90;;;;;;;;;;10558466;28;20035;-83
2023/06/16 12:57:39;;;;;;;5.72;4.13;;;;;;;;;;10537082;28;20039;-83
2023/06/16 13:02:40;;;;;;;4.45;3.83;;;;;;;;;;10539629;28;20040;-83
2023/06/16 13:07:41;;;;;;;6.05;3.38;;;;;;;;;;10535712;28;20040;-83
2023/06/16 13:12:42;;;;;;;5.18;3.92;;;;;;;;;;10536589;28;20032;-84
2023/06/16 13:17:43;;;;;;;6.22;5.50;;;;;;;;;;10536417;28;20058;-82
2023/06/16 13:22:44;;;;;;;4.75;3.97;;;;;;;;;;10534368;28;20067;-84
2023/06/16 13:27:48;;;;;;;5.88;3.80;;;;;;;;;;10538136;28;20085;-82
2023/06/16 13:32:49;;;;;;;10.80;5.53;;;;;;;;;;10553429;28;20119;-82
2023/06/16 13:37:50;;;;;;;5.95;4.15;;;;;;;;;;10560807;28;20031;-81
2023/06/16 13:42:51;;;;;;;4.60;4.00;;;;;;;;;;10546564;28;20107;-83
2023/06/16 13:47:52;;;;;;;7.32;5.72;;;;;;;;;;10557030;28;20039;-83
2023/06/16 13:52:53;;;;;;;7.07;4.90;;;;;;;;;;10538100;28;20036;-83
2023/06/16 13:57:54;;;;;;;5.07;4.22;;;;;;;;;;10536056;28;20089;-83
2023/06/16 14:02:56;;;;;;;8.93;4.47;;;;;;;;;;10553873;28;20111;-83
2023/06/16 14:07:57;;;;;;;5.10;4.13;;;;;;;;;;10535342;28;20126;-82
2023/06/16 14:12:58;;;;;;;5.95;4.97;;;;;;;;;;10544908;28;20124;-83
2023/06/16 14:17:59;;;;;;;5.32;4.07;;;;;;;;;;10571957;28;20036;-83
2023/06/16 14:23:00;;;;;;;6.45;3.95;;;;;;;;;;10544058;28;20050;-83
2023/06/16 14:28:01;;;;;;;4.55;4.15;;;;;;;;;;10562322;28;20043;-83
2023/06/16 14:33:02;;;;;;;9.88;8.32;;;;;;;;;;10545625;28;20446;-83
2023/06/16 14:38:03;;;;;;;4.63;4.13;;;;;;;;;;10563107;28;20099;-83
2023/06/16 14:43:05;;;;;;;7.63;4.22;;;;;;;;;;10566377;28;20036;-83
2023/06/16 14:48:06;;;;;;;7.57;6.35;;;;;;;;;;10544346;28;20379;-83
2023/06/16 14:53:07;;;;;;;5.07;3.90;;;;;;;;;;10565643;28;20032;-83
2023/06/16 14:58:08;;;;;;;7.20;6.50;;;;;;;;;;10546159;28;20075;-85
2023/06/16 15:03:09;;;;;;;6.22;4.22;;;;;;;;;;10545693;28;20039;-83
2023/06/16 15:08:10;;;;;;;5.68;4.50;;;;;;;;;;10544924;28;20451;-84
2023/06/16 15:13:11;;;;;;;9.38;7.13;;;;;;;;;;10560371;28;20052;-84
2023/06/16 15:18:12;;;;;;;10.38;7.85;;;;;;;;;;10542091;28;20043;-84
2023/06/16 15:23:13;;;;;;;5.05;4.30;;;;;;;;;;10539834;28;20474;-83
2023/06/16 15:28:14;;;;;;;6.85;4.45;;;;;;;;;;10539369;28;20108;-84
2023/06/16 15:33:15;;;;;;;6.03;4.18;;;;;;;;;;10542504;28;20036;-83
2023/06/16 15:38:17;;;;;;;12.15;8.82;;;;;;;;;;10542193;28;20056;-83
2023/06/16 15:43:18;;;;;;;6.80;5.53;;;;;;;;;;10542449;28;20028;-84
2023/06/16 15:48:19;;;;;;;5.72;4.97;;;;;;;;;;10541803;28;20102;-84
2023/06/16 15:53:20;;;;;;;4.88;4.25;;;;;;;;;;10542243;28;20131;-84
2023/06/16 15:58:21;;;;;;;5.97;4.22;;;;;;;;;;10539227;28;20043;-86
2023/06/16 16:03:22;;;;;;;5.68;5.05;;;;;;;;;;10542533;28;20473;-84
2023/06/16 16:08:23;;;;;;;7.22;4.70;;;;;;;;;;10543244;28;20078;-84
2023/06/16 16:13:24;;;;;;;5.68;4.00;;;;;;;;;;10540963;28;20082;-85
2023/06/16 16:18:27;;;;;;;5.43;3.92;;;;;;;;;;10538996;28;20028;-84
2023/06/16 16:23:28;;;;;;;5.03;3.85;;;;;;;;;;10543732;28;20032;-84
2023/06/16 16:28:29;;;;;;;4.63;4.03;;;;;;;;;;10540865;28;20526;-84
2023/06/16 16:33:30;;;;;;;4.47;3.88;;;;;;;;;;10541019;28;20035;-83
2023/06/16 16:38:32;;;;;;;5.25;4.13;;;;;;;;;;10543123;28;20482;-84
2023/06/16 16:43:33;;;;;;;4.10;3.70;;;;;;;;;;10547989;28;20130;-83
2023/06/16 16:48:34;;;;;;;4.60;3.85;;;;;;;;;;10539670;28;20130;-84
2023/06/16 16:53:35;;;;;;;4.40;4.00;;;;;;;;;;10534475;28;20081;-84
2023/06/16 16:58:36;;;;;;;4.90;4.15;;;;;;;;;;10565362;28;20052;-83
2023/06/16 17:03:37;;;;;;;4.40;3.97;;;;;;;;;;10540329;28;20036;-85
2023/06/16 17:08:38;;;;;;;4.97;4.30;;;;;;;;;;10538905;28;20039;-84
2023/06/16 17:13:39;;;;;;;6.13;4.70;;;;;;;;;;10557565;28;20443;-85
2023/06/16 17:18:40;;;;;;;6.22;4.78;;;;;;;;;;10542177;28;20032;-85
2023/06/16 17:23:43;;;;;;;7.90;4.30;;;;;;;;;;10540660;28;20038;-85
2023/06/16 17:28:48;;;;;;;4.50;3.78;;;;;;;;;;10539141;28;20145;-85
2023/06/16 17:33:52;;;;;;;4.15;3.75;;;;;;;;;;10562101;28;20031;-85
2023/06/16 17:38:53;;;;;;;4.60;4.10;;;;;;;;;;10539905;28;20028;-86
2023/06/16 17:43:59;;;;;;;4.38;3.58;;;;;;;;;;10563847;28;20031;-84
2023/06/16 17:49:00;;;;;;;6.00;4.22;;;;;;;;;;10570111;28;20040;-83
2023/06/16 17:54:02;;;;;;;4.95;3.80;;;;;;;;;;10588019;28;20084;-84
2023/06/16 17:59:25;;;;;;;5.22;3.97;;;;;;;;;;10591830;22;20097;-86
2023/06/16 18:04:26;;;;;;;5.63;3.92;;;;;;;;;;10564000;28;20024;-85
2023/06/16 18:09:44;;;;;;;4.22;3.70;;;;;;;;;;10565359;28;20435;-86
2023/06/16 18:15:18;;;;;;;6.13;3.95;;;;;;;;;;10543750;28;20508;-87
2023/06/16 18:20:19;;;;;;;5.18;3.35;;;;;;;;;;10480232;28;20124;-87
2023/06/16 18:26:00;;;;;;;6.13;3.90;;;;;;;;;;10523683;28;20553;-87
2023/06/16 18:31:15;;;;;;;4.73;3.50;;;;;;;;;;10539210;28;20032;-87
2023/06/16 18:36:16;;;;;;;6.25;4.20;;;;;;;;;;10539784;28;20270;-87
2023/06/16 18:41:18;;;;;;;3.95;3.28;;;;;;;;;;10541126;28;20115;-87
2023/06/16 18:46:19;;;;;;;4.20;3.55;;;;;;;;;;10541123;28;20043;-86
2023/06/16 18:51:20;;;;;;;5.55;3.70;;;;;;;;;;10539174;28;20036;-87
2023/06/16 18:56:21;;;;;;;5.75;3.40;;;;;;;;;;10544193;28;20118;-86
2023/06/16 19:01:22;;;;;;;6.40;3.60;;;;;;;;;;10547147;28;20036;-87
2023/06/16 19:06:24;;;;;;;4.00;3.60;;;;;;;;;;10548378;28;20032;-86
2023/06/16 19:11:26;;;;;;;8.82;3.97;;;;;;;;;;10576541;28;20035;-85
